Aviation Digital Data Service (ADDS)

Output produced by METARs form (0807 UTC 27 September 2020)
found at http://aviationweather.gov/metar/data/
 
METAR text: KRNT 270753Z AUTO 00000KT 10SM BKN020 12/11 A3029 RMK AO2 SLP261 T01220106 401830117
Conditions at: KRNT (RENTON , WA, US) observed 0753 UTC 27 September 2020
Temperature: 12.2°C (54°F)
Dewpoint: 10.6°C (51°F) [RH = 90%]
Pressure (altimeter): 30.29 inches Hg (1025.8 mb)
[Sea-level pressure: 1026.1 mb]
Winds: calm
Visibility: 10 or more miles (16+ km)
Ceiling: 2000 feet AGL
Clouds: broken clouds at 2000 feet AGL
Weather: automated observation with no human augmentation;
there may or may not be significant weather present at this time

METAR text: KRNT 270653Z AUTO 00000KT 10SM CLR 13/11 A3026 RMK AO2 SLP251 T01280106
Conditions at: KRNT (RENTON , WA, US) observed 0653 UTC 27 September 2020
Temperature: 12.8°C (55°F)
Dewpoint: 10.6°C (51°F) [RH = 86%]
Pressure (altimeter): 30.26 inches Hg (1024.8 mb)
[Sea-level pressure: 1025.1 mb]
Winds: calm
Visibility: 10 or more miles (16+ km)
Ceiling: at least 12,000 feet AGL
Clouds: sky clear below 12,000 feet AGL
Weather: automated observation with no human augmentation;
there may or may not be significant weather present at this time